Asbury, Illinois
Current Conditions -  °F | °C
As of 10:15 AM on Wednesday 28 Jan 2015 (Local Time) from KCUL Reporting Station
Clear Clear  
Wind Chill: 27°   Ceiling: Unl
Heat Index: 37°   Visibility: 7mi
Dew Point: 31°   Wind: 15mph
Humidity: 82%   Direction: 130°SE
Pressure: 30.32"   Gusts: NA
Location:  37.8866°N, 88.266°W
Report Text: KCUL 281615Z AUTO 13013KT 7SM CLR 03/00 A3032 RMK AO2 T00251003
Loading
Personal Weather Stations






























Interactive Weather Map New forecast layout! Learn more

10-Day Weather Forecast

Advertisements
Track Severe Weather on mobile